Time;durP1;ratioP1;P1;durP2;ratioP2;P2;SDS_P1;SDS_P2;PMS_P1;PMS_P2;Temp;Humidity;BMP_temperature;BMP_pressure;BME280_temperature;BME280_humidity;BME280_pressure;Samples;Min_cycle;Max_cycle;Signal;HPM_P1;HPM_P2
2022/05/24 00:00:49;;;;;;;1.50;0.70;;;;;;;;;;7391363;19;20014;-77
2022/05/24 00:03:15;;;;;;;1.70;0.82;;;;;;;;;;7394039;19;20437;-76
2022/05/24 00:05:40;;;;;;;3.38;0.77;;;;;;;;;;7392710;19;20023;-75
2022/05/24 00:08:07;;;;;;;1.02;0.80;;;;;;;;;;7395118;19;20039;-76
2022/05/24 00:10:33;;;;;;;1.95;0.77;;;;;;;;;;7395657;19;20009;-74
2022/05/24 00:12:59;;;;;;;4.35;0.95;;;;;;;;;;7394351;19;20506;-77
2022/05/24 00:15:28;;;;;;;2.05;0.80;;;;;;;;;;7394333;19;20010;-76
2022/05/24 00:17:58;;;;;;;2.10;1.00;;;;;;;;;;7395898;19;20022;-77
2022/05/24 00:20:27;;;;;;;1.55;0.80;;;;;;;;;;7394347;19;20014;-77
2022/05/24 00:22:52;;;;;;;2.30;0.88;;;;;;;;;;7394231;19;20006;-77
2022/05/24 00:25:18;;;;;;;1.50;1.00;;;;;;;;;;7396572;19;20046;-76
2022/05/24 00:27:44;;;;;;;2.28;0.65;;;;;;;;;;7394067;19;20468;-77
2022/05/24 00:30:10;;;;;;;1.08;0.70;;;;;;;;;;7395922;19;20013;-77
2022/05/24 00:32:35;;;;;;;1.52;0.80;;;;;;;;;;7396150;19;20019;-76
2022/05/24 00:35:00;;;;;;;2.40;0.80;;;;;;;;;;7391756;19;20018;-77
2022/05/24 00:37:28;;;;;;;1.60;0.73;;;;;;;;;;7394843;19;20367;-76
2022/05/24 00:39:53;;;;;;;2.38;1.10;;;;;;;;;;7393966;19;20380;-77
2022/05/24 00:42:24;;;;;;;1.73;0.70;;;;;;;;;;7392597;19;20442;-76
2022/05/24 00:44:58;;;;;;;3.45;0.90;;;;;;;;;;7393854;19;20066;-75
2022/05/24 00:47:30;;;;;;;1.38;0.77;;;;;;;;;;7393767;19;20003;-73
2022/05/24 00:50:21;;;;;;;2.78;1.00;;;;;;;;;;7393600;19;20093;-77
2022/05/24 00:52:51;;;;;;;2.10;0.60;;;;;;;;;;7392297;19;20002;-77
2022/05/24 00:55:22;;;;;;;0.95;0.60;;;;;;;;;;7393831;19;20010;-75
2022/05/24 00:58:11;;;;;;;1.83;1.00;;;;;;;;;;7393502;19;20010;-76
2022/05/24 01:00:36;;;;;;;2.00;1.10;;;;;;;;;;7393310;19;20022;-75
2022/05/24 01:03:03;;;;;;;2.90;1.00;;;;;;;;;;7392669;19;20020;-77
2022/05/24 01:05:30;;;;;;;1.65;1.05;;;;;;;;;;7394631;19;20018;-76
2022/05/24 01:07:57;;;;;;;1.60;0.90;;;;;;;;;;7389990;19;20007;-77
2022/05/24 01:10:32;;;;;;;1.90;0.77;;;;;;;;;;7395295;19;20006;-75
2022/05/24 01:13:08;;;;;;;3.45;1.15;;;;;;;;;;7390197;19;20011;-76
2022/05/24 01:15:34;;;;;;;0.98;0.88;;;;;;;;;;7394123;19;20011;-75
2022/05/24 01:18:00;;;;;;;4.47;1.10;;;;;;;;;;7393004;19;20007;-75
2022/05/24 01:20:27;;;;;;;3.33;1.00;;;;;;;;;;7391201;19;20142;-77
2022/05/24 01:23:27;;;;;;;3.63;1.05;;;;;;;;;;7392546;19;20024;-77
2022/05/24 01:26:02;;;;;;;2.70;0.80;;;;;;;;;;7391248;19;20074;-74
2022/05/24 01:28:33;;;;;;;;;;;;;;;;;;7392418;19;20032;-77
2022/05/24 01:31:00;;;;;;;4.05;1.00;;;;;;;;;;7391609;19;19982;-77
2022/05/24 01:36:11;;;;;;;2.13;1.00;;;;;;;;;;7394238;19;20021;-75
2022/05/24 01:38:44;;;;;;;1.10;0.80;;;;;;;;;;7393770;19;19990;-77
2022/05/24 01:41:14;;;;;;;1.83;0.93;;;;;;;;;;7388075;19;20026;-76
2022/05/24 01:43:39;;;;;;;1.95;1.10;;;;;;;;;;7394242;19;20003;-77
2022/05/24 01:46:08;;;;;;;3.33;1.10;;;;;;;;;;7390635;19;20039;-75
2022/05/24 01:48:41;;;;;;;3.85;1.00;;;;;;;;;;7391126;19;20561;-76
2022/05/24 01:51:09;;;;;;;2.03;0.95;;;;;;;;;;7392112;19;20031;-76
2022/05/24 01:53:41;;;;;;;5.30;1.20;;;;;;;;;;7389615;19;20032;-75
2022/05/24 01:56:10;;;;;;;1.20;0.90;;;;;;;;;;7388599;19;20010;-76
2022/05/24 01:58:36;;;;;;;2.58;0.73;;;;;;;;;;7396650;19;20044;-76
2022/05/24 02:01:26;;;;;;;1.42;0.80;;;;;;;;;;7398005;19;20011;-77
2022/05/24 02:03:51;;;;;;;1.98;0.93;;;;;;;;;;7398074;19;20015;-76
2022/05/24 02:06:26;;;;;;;2.42;1.02;;;;;;;;;;7396206;19;20339;-75
2022/05/24 02:08:55;;;;;;;3.22;0.80;;;;;;;;;;7396658;19;20010;-77
2022/05/24 02:11:26;;;;;;;3.17;1.20;;;;;;;;;;7393544;19;20100;-77
2022/05/24 02:14:01;;;;;;;0.95;0.85;;;;;;;;;;7396330;19;20003;-77
2022/05/24 02:16:28;;;;;;;1.38;0.77;;;;;;;;;;7395974;19;20045;-76
2022/05/24 02:18:54;;;;;;;3.28;0.80;;;;;;;;;;7394571;19;20010;-76
2022/05/24 02:21:21;;;;;;;2.78;1.10;;;;;;;;;;7392249;19;20014;-74
2022/05/24 02:23:49;;;;;;;1.23;0.93;;;;;;;;;;7398427;19;20006;-76
2022/05/24 02:26:17;;;;;;;2.60;0.85;;;;;;;;;;7397126;19;20095;-77
2022/05/24 02:28:43;;;;;;;2.22;0.93;;;;;;;;;;7397445;19;20030;-77
2022/05/24 02:31:14;;;;;;;3.05;1.10;;;;;;;;;;7395372;19;20017;-76
2022/05/24 02:33:40;;;;;;;2.05;0.77;;;;;;;;;;7397301;19;20438;-74
2022/05/24 02:36:06;;;;;;;4.72;1.42;;;;;;;;;;7396142;19;20007;-77
2022/05/24 02:38:32;;;;;;;4.82;1.27;;;;;;;;;;7395175;19;20062;-77
2022/05/24 02:43:41;;;;;;;2.13;1.40;;;;;;;;;;7398418;19;20070;-76
2022/05/24 02:46:07;;;;;;;2.75;0.90;;;;;;;;;;7395849;19;20670;-77
2022/05/24 02:48:35;;;;;;;1.20;0.80;;;;;;;;;;7396853;19;20031;-77
2022/05/24 02:51:00;;;;;;;5.22;1.00;;;;;;;;;;7397036;19;20081;-77
2022/05/24 02:53:26;;;;;;;2.35;1.00;;;;;;;;;;7394816;19;20049;-77
2022/05/24 02:55:51;;;;;;;1.10;0.70;;;;;;;;;;7397278;19;19998;-77
2022/05/24 02:58:16;;;;;;;1.40;0.90;;;;;;;;;;7395976;19;20499;-76
2022/05/24 03:00:42;;;;;;;1.95;0.95;;;;;;;;;;7396742;19;20014;-77
2022/05/24 03:03:08;;;;;;;3.30;0.90;;;;;;;;;;7390023;19;20010;-77
2022/05/24 03:05:33;;;;;;;3.17;1.05;;;;;;;;;;7396532;19;20487;-77
2022/05/24 03:10:42;;;;;;;1.08;0.82;;;;;;;;;;7394792;19;20628;-74
2022/05/24 03:15:53;;;;;;;1.10;0.85;;;;;;;;;;7398009;19;20490;-77
2022/05/24 03:18:21;;;;;;;2.75;0.95;;;;;;;;;;7396147;19;20018;-77
2022/05/24 03:20:47;;;;;;;2.70;0.90;;;;;;;;;;7392726;19;20013;-77
2022/05/24 03:23:13;;;;;;;3.35;0.85;;;;;;;;;;7392019;19;20007;-77
2022/05/24 03:25:39;;;;;;;0.98;0.77;;;;;;;;;;7396009;19;20019;-77
2022/05/24 03:28:06;;;;;;;1.15;0.82;;;;;;;;;;7393528;19;20478;-77
2022/05/24 03:30:35;;;;;;;1.48;1.02;;;;;;;;;;7396259;19;20396;-77
2022/05/24 03:33:01;;;;;;;1.20;0.82;;;;;;;;;;7393995;19;20029;-76
2022/05/24 03:35:26;;;;;;;1.40;0.82;;;;;;;;;;7394768;19;20099;-73
2022/05/24 03:37:51;;;;;;;1.52;1.10;;;;;;;;;;7396364;19;20077;-77
2022/05/24 03:40:17;;;;;;;1.33;1.00;;;;;;;;;;7394615;19;20478;-76
2022/05/24 03:42:42;;;;;;;1.83;0.88;;;;;;;;;;7395130;19;20007;-77
2022/05/24 03:45:09;;;;;;;0.63;0.63;;;;;;;;;;7395272;19;20006;-77
2022/05/24 03:47:38;;;;;;;2.70;1.10;;;;;;;;;;7393625;19;20015;-77
2022/05/24 03:50:05;;;;;;;2.67;1.00;;;;;;;;;;7395989;19;20017;-77
2022/05/24 03:52:30;;;;;;;1.80;1.02;;;;;;;;;;7384195;19;20013;-77
2022/05/24 03:54:56;;;;;;;12.35;1.02;;;;;;;;;;7396547;19;20078;-77
2022/05/24 04:00:06;;;;;;;1.20;0.80;;;;;;;;;;7400515;19;20367;-77
2022/05/24 04:02:32;;;;;;;3.97;0.90;;;;;;;;;;7397495;19;20021;-76
2022/05/24 04:04:58;;;;;;;1.98;1.20;;;;;;;;;;7396899;19;20458;-77
2022/05/24 04:07:23;;;;;;;4.22;1.27;;;;;;;;;;7393576;19;20344;-76
2022/05/24 04:09:48;;;;;;;2.05;0.90;;;;;;;;;;7392852;19;20128;-77
2022/05/24 04:12:14;;;;;;;2.30;0.80;;;;;;;;;;7393601;19;20367;-77
2022/05/24 04:14:39;;;;;;;2.45;0.85;;;;;;;;;;7395330;19;20010;-77
2022/05/24 04:17:04;;;;;;;4.72;1.08;;;;;;;;;;7398102;19;20015;-77
2022/05/24 04:19:29;;;;;;;2.22;0.90;;;;;;;;;;7395745;19;20043;-77
2022/05/24 04:21:55;;;;;;;1.63;0.98;;;;;;;;;;7395576;19;20014;-77
2022/05/24 04:24:20;;;;;;;2.35;1.23;;;;;;;;;;7396706;19;20418;-77
2022/05/24 04:26:46;;;;;;;1.65;1.00;;;;;;;;;;7388681;19;20025;-76
2022/05/24 04:29:12;;;;;;;0.90;0.88;;;;;;;;;;7390184;19;20109;-76
2022/05/24 04:31:38;;;;;;;2.05;1.00;;;;;;;;;;7388420;19;20092;-75
2022/05/24 04:34:03;;;;;;;1.30;1.10;;;;;;;;;;7388478;19;20084;-77
2022/05/24 04:36:29;;;;;;;1.45;0.95;;;;;;;;;;7391604;19;20015;-76
2022/05/24 04:38:54;;;;;;;2.47;1.02;;;;;;;;;;7390164;19;20074;-76
2022/05/24 04:44:03;;;;;;;2.05;1.05;;;;;;;;;;7391253;19;20047;-76
2022/05/24 04:47:06;;;;;;;1.48;0.93;;;;;;;;;;7389261;19;20388;-77
2022/05/24 04:49:14;;;;;;;4.50;0.95;;;;;;;;;;7389170;19;20031;-77
2022/05/24 04:51:39;;;;;;;2.88;1.00;;;;;;;;;;7387709;19;20003;-76
2022/05/24 04:54:04;;;;;;;0.60;0.60;;;;;;;;;;7390212;19;20043;-78
2022/05/24 04:56:30;;;;;;;1.05;0.73;;;;;;;;;;7389568;19;20002;-77
2022/05/24 04:58:55;;;;;;;1.50;0.68;;;;;;;;;;7387493;19;20010;-77
2022/05/24 05:01:20;;;;;;;3.03;0.77;;;;;;;;;;7387204;19;20083;-76
2022/05/24 05:03:45;;;;;;;2.22;0.80;;;;;;;;;;7388829;19;20002;-75
2022/05/24 05:06:11;;;;;;;2.03;0.80;;;;;;;;;;7387698;19;20023;-76
2022/05/24 05:08:36;;;;;;;2.10;0.90;;;;;;;;;;7386729;19;20011;-76
2022/05/24 05:11:01;;;;;;;1.02;0.80;;;;;;;;;;7387399;19;20027;-76
2022/05/24 05:13:27;;;;;;;0.90;0.80;;;;;;;;;;7383972;19;20419;-75
2022/05/24 05:15:53;;;;;;;2.70;0.85;;;;;;;;;;7385039;19;20018;-75
2022/05/24 05:18:20;;;;;;;2.25;0.95;;;;;;;;;;7393627;19;20006;-76
2022/05/24 05:20:46;;;;;;;1.38;0.75;;;;;;;;;;7395741;19;20036;-73
2022/05/24 05:23:14;;;;;;;2.15;0.88;;;;;;;;;;7394146;19;20002;-77
2022/05/24 05:25:47;;;;;;;1.58;0.90;;;;;;;;;;7391575;19;20010;-75
2022/05/24 05:28:13;;;;;;;1.45;1.15;;;;;;;;;;7386035;19;20504;-76
2022/05/24 05:33:22;;;;;;;2.10;0.70;;;;;;;;;;7391881;19;20017;-75
2022/05/24 05:35:47;;;;;;;1.65;0.93;;;;;;;;;;7391972;19;20811;-76
2022/05/24 05:38:13;;;;;;;1.42;0.60;;;;;;;;;;7393956;19;20028;-76
2022/05/24 05:40:39;;;;;;;0.80;0.70;;;;;;;;;;7390234;19;20018;-74
2022/05/24 05:43:05;;;;;;;0.70;0.70;;;;;;;;;;7391840;19;20006;-77
2022/05/24 05:45:30;;;;;;;2.08;0.80;;;;;;;;;;7391983;19;20021;-76
2022/05/24 05:47:56;;;;;;;2.47;0.85;;;;;;;;;;7391023;19;20078;-77
2022/05/24 05:50:21;;;;;;;1.13;0.70;;;;;;;;;;7386709;19;20007;-76
2022/05/24 05:52:47;;;;;;;2.85;0.75;;;;;;;;;;7389788;19;20011;-74
2022/05/24 05:55:12;;;;;;;1.98;1.20;;;;;;;;;;7386432;19;20015;-74
2022/05/24 05:57:39;;;;;;;4.22;1.00;;;;;;;;;;7391010;19;20003;-75
2022/05/24 06:00:05;;;;;;;2.10;0.90;;;;;;;;;;7392870;19;20055;-77
2022/05/24 06:02:31;;;;;;;2.78;0.75;;;;;;;;;;7384765;19;20006;-76
2022/05/24 06:04:56;;;;;;;2.35;1.33;;;;;;;;;;7386151;19;20035;-77
2022/05/24 06:07:23;;;;;;;1.85;1.30;;;;;;;;;;7387541;19;20353;-77
2022/05/24 06:09:49;;;;;;;1.85;0.90;;;;;;;;;;7386980;19;19998;-76
2022/05/24 06:12:14;;;;;;;2.38;0.95;;;;;;;;;;7385840;19;20355;-76
2022/05/24 06:14:39;;;;;;;0.77;0.77;;;;;;;;;;7387440;19;20035;-75
2022/05/24 06:17:04;;;;;;;1.27;0.82;;;;;;;;;;7388646;19;20007;-77
2022/05/24 06:19:30;;;;;;;4.72;1.00;;;;;;;;;;7389219;19;20015;-77
2022/05/24 06:21:55;;;;;;;2.22;0.93;;;;;;;;;;7384287;19;20011;-77
2022/05/24 06:24:20;;;;;;;1.17;0.80;;;;;;;;;;7384624;19;20010;-77
2022/05/24 06:26:45;;;;;;;1.83;0.90;;;;;;;;;;7384259;19;20040;-78
2022/05/24 06:29:11;;;;;;;2.25;0.90;;;;;;;;;;7387786;19;20574;-76
2022/05/24 06:31:36;;;;;;;1.70;0.70;;;;;;;;;;7385861;19;20074;-76
2022/05/24 06:34:02;;;;;;;3.95;0.95;;;;;;;;;;7387562;19;20018;-77
2022/05/24 06:36:27;;;;;;;3.13;1.30;;;;;;;;;;7383408;19;20488;-77
2022/05/24 06:38:52;;;;;;;2.08;1.00;;;;;;;;;;7382114;19;20038;-76
2022/05/24 06:41:17;;;;;;;2.30;1.20;;;;;;;;;;7384453;19;20003;-76
2022/05/24 06:43:43;;;;;;;1.55;1.00;;;;;;;;;;7389047;19;20495;-75
2022/05/24 06:46:08;;;;;;;5.53;0.93;;;;;;;;;;7393651;19;20010;-76
2022/05/24 06:48:38;;;;;;;2.03;0.90;;;;;;;;;;7394647;19;20014;-76
2022/05/24 06:51:10;;;;;;;2.42;1.00;;;;;;;;;;7395565;19;20018;-77
2022/05/24 06:53:36;;;;;;;1.95;0.80;;;;;;;;;;7393831;19;20014;-77
2022/05/24 06:56:01;;;;;;;3.30;0.98;;;;;;;;;;7395816;19;20082;-77
2022/05/24 06:58:26;;;;;;;1.00;0.90;;;;;;;;;;7398154;19;20424;-77
2022/05/24 07:03:36;;;;;;;2.20;0.80;;;;;;;;;;7397459;19;20017;-74
2022/05/24 07:06:01;;;;;;;2.90;0.90;;;;;;;;;;7392328;19;20078;-75
2022/05/24 07:08:27;;;;;;;5.60;1.35;;;;;;;;;;7399962;19;20038;-76
2022/05/24 07:10:52;;;;;;;2.30;1.08;;;;;;;;;;7398533;19;20014;-76
2022/05/24 07:13:19;;;;;;;2.83;1.02;;;;;;;;;;7387150;19;20041;-76
2022/05/24 07:15:45;;;;;;;2.28;0.88;;;;;;;;;;7387452;19;20127;-76
2022/05/24 07:18:11;;;;;;;2.97;1.10;;;;;;;;;;7389882;19;20027;-75
2022/05/24 07:20:36;;;;;;;2.35;0.98;;;;;;;;;;7387716;19;20470;-77
2022/05/24 07:23:24;;;;;;;1.02;0.93;;;;;;;;;;7390184;19;20032;-76
2022/05/24 07:25:50;;;;;;;2.95;0.90;;;;;;;;;;7383221;19;20029;-77
2022/05/24 07:28:16;;;;;;;3.15;0.88;;;;;;;;;;7391835;19;20040;-76
2022/05/24 07:30:42;;;;;;;1.90;1.00;;;;;;;;;;7393657;19;20014;-77
2022/05/24 07:33:08;;;;;;;1.60;0.82;;;;;;;;;;7392597;19;20438;-76
2022/05/24 07:35:34;;;;;;;0.98;0.55;;;;;;;;;;7394502;19;20006;-77
2022/05/24 07:37:59;;;;;;;1.00;0.68;;;;;;;;;;7396090;19;20020;-76
2022/05/24 07:45:57;;;;;;;2.08;1.10;;;;;;;;;;7397424;19;20541;-78
2022/05/24 07:48:23;;;;;;;2.35;1.00;;;;;;;;;;7398181;19;20007;-77
2022/05/24 07:50:50;;;;;;;4.00;1.00;;;;;;;;;;7390179;19;20013;-77
2022/05/24 07:53:15;;;;;;;1.40;1.02;;;;;;;;;;7391970;19;20018;-77
2022/05/24 07:55:41;;;;;;;2.40;0.85;;;;;;;;;;7392907;19;20370;-77
2022/05/24 07:58:06;;;;;;;3.35;0.90;;;;;;;;;;7390335;19;20018;-77
2022/05/24 08:00:33;;;;;;;6.53;0.88;;;;;;;;;;7388032;19;20014;-77
2022/05/24 08:02:58;;;;;;;4.47;0.80;;;;;;;;;;7389493;19;20387;-77
2022/05/24 08:05:24;;;;;;;1.27;0.80;;;;;;;;;;7390473;19;20029;-77
2022/05/24 08:07:50;;;;;;;1.23;0.85;;;;;;;;;;7389999;19;20086;-77
2022/05/24 08:10:17;;;;;;;1.38;0.70;;;;;;;;;;7391199;19;20006;-77
2022/05/24 08:12:45;;;;;;;2.00;0.80;;;;;;;;;;7388622;19;20472;-77
2022/05/24 08:15:11;;;;;;;1.00;0.63;;;;;;;;;;7387834;19;20032;-77
2022/05/24 08:17:36;;;;;;;0.95;0.57;;;;;;;;;;7393512;19;20511;-78
2022/05/24 08:20:03;;;;;;;2.47;0.88;;;;;;;;;;7388355;19;20015;-78
2022/05/24 08:22:29;;;;;;;1.60;0.70;;;;;;;;;;7390057;19;20002;-80
2022/05/24 08:24:54;;;;;;;1.95;0.45;;;;;;;;;;7394593;19;20018;-78
2022/05/24 08:27:19;;;;;;;1.00;0.68;;;;;;;;;;7388456;19;20410;-77
2022/05/24 08:29:44;;;;;;;0.95;0.55;;;;;;;;;;7390371;19;20002;-77
2022/05/24 08:32:11;;;;;;;1.08;0.60;;;;;;;;;;7386412;19;20006;-78
2022/05/24 08:34:38;;;;;;;0.95;0.60;;;;;;;;;;7392207;19;20031;-77
2022/05/24 08:37:04;;;;;;;1.23;0.50;;;;;;;;;;7391222;19;20018;-77
2022/05/24 08:39:30;;;;;;;0.80;0.43;;;;;;;;;;7390899;19;20037;-77
2022/05/24 08:42:25;;;;;;;0.50;0.50;;;;;;;;;;7384799;19;20006;-77
2022/05/24 08:50:37;;;;;;;1.45;0.80;;;;;;;;;;7385539;19;20035;-77
2022/05/24 08:53:10;;;;;;;2.13;0.60;;;;;;;;;;7383167;19;20007;-78
2022/05/24 08:55:38;;;;;;;0.60;0.45;;;;;;;;;;7387446;19;20017;-77
2022/05/24 08:58:07;;;;;;;0.57;0.57;;;;;;;;;;7386032;19;20073;-77
2022/05/24 09:00:39;;;;;;;0.80;0.80;;;;;;;;;;7390448;19;20444;-77
2022/05/24 09:03:06;;;;;;;2.05;0.60;;;;;;;;;;7387802;19;20074;-77
2022/05/24 09:05:51;;;;;;;0.70;0.50;;;;;;;;;;7393207;19;20018;-77
2022/05/24 09:08:26;;;;;;;0.93;0.50;;;;;;;;;;7387094;19;20109;-77
2022/05/24 09:11:20;;;;;;;0.75;0.55;;;;;;;;;;7392208;19;20556;-77
2022/05/24 09:14:00;;;;;;;1.88;0.30;;;;;;;;;;7392230;19;20502;-76
2022/05/24 09:16:34;;;;;;;1.13;0.52;;;;;;;;;;7385305;19;20010;-77
2022/05/24 09:19:23;;;;;;;1.20;0.47;;;;;;;;;;7379925;19;20040;-77
2022/05/24 09:21:52;;;;;;;1.30;0.50;;;;;;;;;;7390140;19;20017;-77
2022/05/24 09:24:49;;;;;;;0.75;0.45;;;;;;;;;;7392281;19;20009;-77
2022/05/24 09:27:26;;;;;;;1.63;0.32;;;;;;;;;;7390206;19;20052;-77
2022/05/24 09:30:06;;;;;;;2.85;0.57;;;;;;;;;;7390705;19;20013;-76
2022/05/24 09:32:41;;;;;;;1.60;0.65;;;;;;;;;;7383233;19;20018;-77
2022/05/24 09:35:13;;;;;;;1.55;0.65;;;;;;;;;;7389854;19;20002;-77
2022/05/24 09:37:39;;;;;;;1.23;0.50;;;;;;;;;;7392223;19;20006;-77
2022/05/24 09:40:43;;;;;;;1.25;0.65;;;;;;;;;;7390625;19;20013;-77
2022/05/24 09:43:18;;;;;;;0.93;0.50;;;;;;;;;;7386305;19;20334;-77
2022/05/24 09:45:46;;;;;;;1.23;0.60;;;;;;;;;;7391813;19;19999;-77
2022/05/24 09:48:22;;;;;;;0.73;0.57;;;;;;;;;;7388286;19;20014;-77
2022/05/24 09:50:51;;;;;;;1.92;0.70;;;;;;;;;;7390021;19;20010;-77
2022/05/24 09:53:20;;;;;;;1.90;0.77;;;;;;;;;;7386374;19;20035;-76
2022/05/24 09:55:55;;;;;;;0.70;0.65;;;;;;;;;;7390934;19;20046;-78
2022/05/24 09:58:39;;;;;;;3.20;0.90;;;;;;;;;;7392397;19;20007;-77
2022/05/24 10:01:13;;;;;;;0.47;0.47;;;;;;;;;;7387150;19;20025;-77
2022/05/24 10:03:43;;;;;;;3.37;0.80;;;;;;;;;;7387358;19;20093;-77
2022/05/24 10:06:26;;;;;;;1.63;0.95;;;;;;;;;;7388451;19;20529;-78
2022/05/24 10:08:58;;;;;;;3.13;0.90;;;;;;;;;;7395512;19;20058;-77
2022/05/24 10:11:38;;;;;;;1.05;0.70;;;;;;;;;;7386645;19;20371;-77
2022/05/24 10:14:11;;;;;;;1.40;0.90;;;;;;;;;;7392649;19;20023;-77
2022/05/24 10:16:50;;;;;;;2.28;0.93;;;;;;;;;;7391507;19;20015;-76
2022/05/24 10:19:39;;;;;;;1.67;0.80;;;;;;;;;;7391978;19;20042;-77
2022/05/24 10:22:26;;;;;;;1.60;0.80;;;;;;;;;;7397323;19;20014;-78
2022/05/24 10:25:16;;;;;;;1.70;0.90;;;;;;;;;;7397144;19;20118;-78
2022/05/24 10:27:47;;;;;;;1.00;0.65;;;;;;;;;;7394401;19;20028;-76
2022/05/24 10:30:21;;;;;;;1.38;0.80;;;;;;;;;;7399327;19;20006;-77
2022/05/24 10:39:20;;;;;;;0.93;0.60;;;;;;;;;;7399224;19;20034;-77
2022/05/24 10:42:28;;;;;;;1.15;0.70;;;;;;;;;;7395446;19;20010;-76
2022/05/24 10:45:08;;;;;;;2.08;0.80;;;;;;;;;;7395646;19;20006;-78
2022/05/24 10:47:36;;;;;;;4.63;0.60;;;;;;;;;;7398431;19;20010;-77
2022/05/24 10:50:08;;;;;;;1.75;0.85;;;;;;;;;;7397866;19;20014;-77
2022/05/24 10:52:44;;;;;;;1.20;0.77;;;;;;;;;;7395963;19;20035;-77
2022/05/24 10:55:19;;;;;;;3.90;0.70;;;;;;;;;;7399041;19;20021;-77
2022/05/24 10:58:01;;;;;;;1.83;0.90;;;;;;;;;;7394453;19;20007;-77
2022/05/24 11:00:49;;;;;;;4.32;0.90;;;;;;;;;;7393724;19;20011;-78
2022/05/24 11:03:15;;;;;;;0.95;0.73;;;;;;;;;;7391752;19;20005;-77
2022/05/24 11:05:49;;;;;;;1.65;0.80;;;;;;;;;;7394923;19;20007;-77
2022/05/24 11:08:47;;;;;;;2.50;0.65;;;;;;;;;;7396418;19;20027;-78
2022/05/24 11:11:39;;;;;;;2.17;0.35;;;;;;;;;;7396709;19;20009;-76
2022/05/24 11:14:16;;;;;;;0.47;0.20;;;;;;;;;;7390143;19;20082;-77
2022/05/24 11:16:46;;;;;;;0.32;0.25;;;;;;;;;;7396065;19;20319;-78
2022/05/24 11:19:16;;;;;;;0.03;0.03;;;;;;;;;;7399540;19;20018;-78
2022/05/24 11:21:47;;;;;;;0.30;0.20;;;;;;;;;;7397441;19;20115;-77
2022/05/24 11:24:28;;;;;;;0.55;0.10;;;;;;;;;;7397642;19;20487;-76
2022/05/24 11:26:56;;;;;;;0.10;0.10;;;;;;;;;;7397607;19;20066;-78
2022/05/24 11:29:42;;;;;;;0.65;0.20;;;;;;;;;;7397177;19;20011;-77
2022/05/24 11:32:09;;;;;;;2.28;0.30;;;;;;;;;;7393332;19;20023;-77
2022/05/24 11:34:38;;;;;;;2.83;0.20;;;;;;;;;;7396272;19;20469;-78
2022/05/24 11:37:19;;;;;;;1.85;0.20;;;;;;;;;;7397422;19;20311;-78
2022/05/24 11:39:44;;;;;;;0.10;0.10;;;;;;;;;;7398090;19;20019;-78
2022/05/24 11:42:43;;;;;;;0.57;0.28;;;;;;;;;;7392888;19;20006;-77
2022/05/24 11:45:31;;;;;;;0.00;0.00;;;;;;;;;;7395260;19;20011;-78
2022/05/24 11:48:09;;;;;;;0.10;0.10;;;;;;;;;;7395240;19;20382;-78
2022/05/24 11:50:35;;;;;;;0.98;0.25;;;;;;;;;;7397354;19;20013;-77
2022/05/24 11:53:32;;;;;;;0.17;0.08;;;;;;;;;;7389616;19;20040;-77
2022/05/24 11:55:57;;;;;;;0.10;0.10;;;;;;;;;;7397804;19;20114;-76
2022/05/24 11:58:40;;;;;;;0.45;0.15;;;;;;;;;;7397196;19;20011;-77
2022/05/24 12:01:14;;;;;;;0.10;0.10;;;;;;;;;;7388642;19;20031;-76
2022/05/24 12:10:21;;;;;;;0.80;0.55;;;;;;;;;;7389605;19;20010;-76
2022/05/24 12:12:53;;;;;;;0.20;0.20;;;;;;;;;;7391499;19;20565;-77
2022/05/24 12:15:21;;;;;;;0.13;0.10;;;;;;;;;;7392853;19;20117;-77
2022/05/24 12:17:52;;;;;;;0.20;0.20;;;;;;;;;;7389536;19;20007;-77
2022/05/24 12:20:33;;;;;;;0.98;0.38;;;;;;;;;;7392217;19;20078;-78
2022/05/24 12:23:04;;;;;;;0.40;0.30;;;;;;;;;;7389002;19;20018;-76
2022/05/24 12:26:04;;;;;;;0.63;0.20;;;;;;;;;;7394338;19;20482;-77
2022/05/24 12:28:32;;;;;;;2.38;0.47;;;;;;;;;;7388558;19;20010;-77
2022/05/24 12:30:59;;;;;;;0.47;0.20;;;;;;;;;;7391613;19;20014;-77
2022/05/24 12:33:24;;;;;;;0.10;0.10;;;;;;;;;;7386766;19;20027;-77
2022/05/24 12:36:08;;;;;;;3.30;0.50;;;;;;;;;;7390586;19;20015;-77
2022/05/24 12:38:35;;;;;;;0.25;0.25;;;;;;;;;;7393287;19;20306;-75
2022/05/24 12:41:25;;;;;;;0.73;0.30;;;;;;;;;;7390170;19;20145;-77
2022/05/24 12:43:55;;;;;;;0.88;0.20;;;;;;;;;;7397555;19;20039;-78
2022/05/24 12:46:21;;;;;;;0.50;0.40;;;;;;;;;;7395904;19;20066;-76
2022/05/24 12:48:47;;;;;;;0.20;0.20;;;;;;;;;;7398594;19;20320;-78
2022/05/24 12:51:18;;;;;;;0.20;0.20;;;;;;;;;;7393569;19;20006;-77
2022/05/24 12:53:44;;;;;;;0.45;0.45;;;;;;;;;;7392988;19;20014;-76
2022/05/24 12:56:17;;;;;;;0.75;0.40;;;;;;;;;;7396760;19;20062;-78
2022/05/24 12:58:45;;;;;;;2.80;0.40;;;;;;;;;;7398052;19;20007;-78
2022/05/24 13:01:26;;;;;;;2.55;0.32;;;;;;;;;;7397942;19;20017;-76
2022/05/24 13:03:52;;;;;;;0.47;0.47;;;;;;;;;;7395399;19;20018;-77
2022/05/24 13:06:27;;;;;;;0.30;0.30;;;;;;;;;;7394036;19;20019;-77
2022/05/24 13:09:15;;;;;;;;;;;;;;;;;;7395401;19;20006;-77
2022/05/24 13:11:43;;;;;;;1.55;0.40;;;;;;;;;;7396937;19;20235;-77
2022/05/24 13:14:24;;;;;;;0.40;0.40;;;;;;;;;;7395741;19;20037;-78
2022/05/24 13:16:49;;;;;;;0.75;0.35;;;;;;;;;;7396684;19;20494;-79
2022/05/24 13:19:15;;;;;;;0.38;0.38;;;;;;;;;;7396822;19;20006;-77
2022/05/24 13:21:41;;;;;;;2.30;0.68;;;;;;;;;;7396534;19;20011;-79
2022/05/24 13:24:15;;;;;;;0.50;0.50;;;;;;;;;;7397027;19;20019;-79
2022/05/24 13:27:01;;;;;;;0.52;0.52;;;;;;;;;;7401488;19;20071;-79
2022/05/24 13:29:29;;;;;;;0.32;0.32;;;;;;;;;;7409185;19;20468;-79
2022/05/24 13:34:58;;;;;;;0.75;0.50;;;;;;;;;;7394655;19;20427;-76
2022/05/24 13:37:25;;;;;;;1.02;0.50;;;;;;;;;;7392706;19;20023;-76
2022/05/24 13:39:54;;;;;;;0.65;0.50;;;;;;;;;;7393902;19;20024;-78
2022/05/24 13:42:21;;;;;;;0.90;0.60;;;;;;;;;;7393687;19;20014;-78
2022/05/24 13:45:05;;;;;;;0.85;0.50;;;;;;;;;;7389402;19;20013;-77
2022/05/24 13:47:39;;;;;;;0.43;0.43;;;;;;;;;;7389103;19;20028;-76
2022/05/24 13:50:26;;;;;;;1.08;0.30;;;;;;;;;;7390538;19;20017;-76
2022/05/24 13:53:24;;;;;;;0.50;0.30;;;;;;;;;;7387257;19;20010;-77
2022/05/24 13:55:55;;;;;;;0.52;0.43;;;;;;;;;;7396612;19;20074;-77
2022/05/24 13:58:32;;;;;;;0.57;0.57;;;;;;;;;;7394260;19;20020;-75
2022/05/24 14:01:11;;;;;;;0.47;0.43;;;;;;;;;;7395554;19;20010;-77
2022/05/24 14:03:53;;;;;;;0.40;0.20;;;;;;;;;;7393256;19;20022;-75
2022/05/24 14:06:29;;;;;;;2.78;0.40;;;;;;;;;;7393981;19;20651;-76
2022/05/24 14:08:57;;;;;;;0.70;0.60;;;;;;;;;;7397750;19;20027;-77
2022/05/24 14:11:31;;;;;;;0.50;0.50;;;;;;;;;;7395365;19;20122;-76
2022/05/24 14:13:57;;;;;;;1.10;0.50;;;;;;;;;;7396255;19;20010;-74
2022/05/24 14:16:24;;;;;;;0.50;0.40;;;;;;;;;;7393684;19;20032;-74
2022/05/24 14:18:50;;;;;;;1.63;0.70;;;;;;;;;;7392529;19;20458;-77
2022/05/24 14:21:21;;;;;;;1.77;0.63;;;;;;;;;;7394766;19;20006;-77
2022/05/24 14:23:47;;;;;;;0.45;0.45;;;;;;;;;;7390331;19;20006;-75
2022/05/24 14:26:12;;;;;;;0.77;0.50;;;;;;;;;;7393750;19;20074;-78
2022/05/24 14:28:37;;;;;;;0.50;0.50;;;;;;;;;;7397453;19;20002;-76
2022/05/24 14:31:04;;;;;;;2.40;0.68;;;;;;;;;;7392687;19;20576;-77
2022/05/24 14:33:29;;;;;;;1.08;0.60;;;;;;;;;;7391887;19;20122;-75
2022/05/24 14:35:55;;;;;;;0.40;0.30;;;;;;;;;;7395397;19;20505;-77
2022/05/24 14:38:20;;;;;;;0.40;0.40;;;;;;;;;;7393683;19;21210;-77
2022/05/24 14:40:48;;;;;;;1.23;0.50;;;;;;;;;;7397608;19;20011;-76
2022/05/24 14:43:25;;;;;;;0.65;0.63;;;;;;;;;;7392432;19;20512;-76
2022/05/24 14:45:52;;;;;;;0.85;0.60;;;;;;;;;;7400621;19;20019;-78
2022/05/24 14:48:17;;;;;;;2.60;0.63;;;;;;;;;;7395379;19;20010;-78
2022/05/24 14:50:44;;;;;;;0.40;0.40;;;;;;;;;;7399011;19;20010;-78
2022/05/24 14:53:09;;;;;;;1.20;0.60;;;;;;;;;;7397906;19;20011;-77
2022/05/24 14:55:36;;;;;;;0.60;0.50;;;;;;;;;;7401010;19;19995;-77
2022/05/24 14:58:02;;;;;;;0.40;0.40;;;;;;;;;;7396416;19;20014;-77
2022/05/24 15:00:28;;;;;;;0.40;0.40;;;;;;;;;;7401151;19;20063;-78
2022/05/24 15:02:53;;;;;;;0.50;0.50;;;;;;;;;;7385232;19;20003;-78
2022/05/24 15:05:19;;;;;;;0.75;0.52;;;;;;;;;;7397227;19;20011;-76
2022/05/24 15:16:08;;;;;;;0.47;0.30;;;;;;;;;;7396434;19;20013;-78
2022/05/24 15:18:34;;;;;;;3.22;0.40;;;;;;;;;;7391749;19;20011;-76
2022/05/24 15:20:59;;;;;;;0.50;0.50;;;;;;;;;;7394475;19;20481;-77
2022/05/24 15:23:28;;;;;;;1.63;0.80;;;;;;;;;;7391666;19;19999;-78
2022/05/24 15:26:03;;;;;;;0.95;0.90;;;;;;;;;;7389437;19;20021;-76
2022/05/24 15:28:36;;;;;;;1.85;0.63;;;;;;;;;;7387116;19;20021;-77
2022/05/24 15:31:01;;;;;;;0.85;0.60;;;;;;;;;;7392376;19;20010;-76
2022/05/24 15:33:26;;;;;;;0.38;0.38;;;;;;;;;;7394423;19;20027;-77
2022/05/24 15:35:52;;;;;;;0.43;0.40;;;;;;;;;;7397411;19;20006;-77
2022/05/24 15:38:18;;;;;;;0.40;0.40;;;;;;;;;;7396158;19;20021;-77
2022/05/24 15:40:43;;;;;;;0.55;0.50;;;;;;;;;;7393979;19;20012;-74
2022/05/24 15:43:11;;;;;;;0.98;0.70;;;;;;;;;;7388663;19;20010;-77
2022/05/24 15:45:36;;;;;;;2.78;0.70;;;;;;;;;;7393439;19;20086;-76
2022/05/24 15:48:03;;;;;;;0.75;0.50;;;;;;;;;;7390325;19;20015;-76
2022/05/24 15:50:28;;;;;;;0.82;0.45;;;;;;;;;;7392410;19;20010;-77
2022/05/24 15:52:54;;;;;;;0.90;0.40;;;;;;;;;;7390056;19;20013;-77
2022/05/24 15:55:19;;;;;;;0.28;0.28;;;;;;;;;;7394900;19;20014;-77
2022/05/24 15:57:45;;;;;;;0.40;0.40;;;;;;;;;;7391930;19;20014;-78